sensor_id;sensor_type;location;lat;lon;timestamp;P1;durP1;ratioP1;P2;durP2;ratioP2
66893;SDS011;53801;55.786;49.142;2023-07-13T00:00:52;2.87;;;1.40;;
66893;SDS011;53801;55.786;49.142;2023-07-13T00:03:17;6.55;;;2.10;;
66893;SDS011;53801;55.786;49.142;2023-07-13T00:05:43;2.20;;;1.38;;
66893;SDS011;53801;55.786;49.142;2023-07-13T00:08:08;2.83;;;1.50;;
66893;SDS011;53801;55.786;49.142;2023-07-13T00:10:42;2.38;;;1.27;;
66893;SDS011;53801;55.786;49.142;2023-07-13T00:13:08;4.03;;;1.20;;
66893;SDS011;53801;55.786;49.142;2023-07-13T00:15:34;3.00;;;1.40;;
66893;SDS011;53801;55.786;49.142;2023-07-13T00:18:00;2.33;;;1.30;;
66893;SDS011;53801;55.786;49.142;2023-07-13T00:20:26;2.57;;;1.33;;
66893;SDS011;53801;55.786;49.142;2023-07-13T00:22:52;2.30;;;1.60;;
66893;SDS011;53801;55.786;49.142;2023-07-13T00:25:21;2.00;;;1.50;;
66893;SDS011;53801;55.786;49.142;2023-07-13T00:27:47;3.72;;;1.40;;
66893;SDS011;53801;55.786;49.142;2023-07-13T00:30:14;2.50;;;1.30;;
66893;SDS011;53801;55.786;49.142;2023-07-13T00:32:39;2.10;;;1.20;;
66893;SDS011;53801;55.786;49.142;2023-07-13T00:35:05;2.77;;;1.50;;
66893;SDS011;53801;55.786;49.142;2023-07-13T00:37:31;2.47;;;1.25;;
66893;SDS011;53801;55.786;49.142;2023-07-13T00:39:56;3.30;;;1.43;;
66893;SDS011;53801;55.786;49.142;2023-07-13T00:42:22;5.25;;;1.90;;
66893;SDS011;53801;55.786;49.142;2023-07-13T00:45:01;3.27;;;1.50;;
66893;SDS011;53801;55.786;49.142;2023-07-13T00:47:27;5.50;;;1.65;;
66893;SDS011;53801;55.786;49.142;2023-07-13T00:49:53;6.00;;;1.77;;
66893;SDS011;53801;55.786;49.142;2023-07-13T00:52:18;6.63;;;1.70;;
66893;SDS011;53801;55.786;49.142;2023-07-13T00:54:45;4.88;;;1.48;;
66893;SDS011;53801;55.786;49.142;2023-07-13T00:57:14;4.10;;;1.48;;
66893;SDS011;53801;55.786;49.142;2023-07-13T00:59:41;3.60;;;1.50;;
66893;SDS011;53801;55.786;49.142;2023-07-13T01:02:07;4.27;;;1.63;;
66893;SDS011;53801;55.786;49.142;2023-07-13T01:04:33;3.70;;;1.67;;
66893;SDS011;53801;55.786;49.142;2023-07-13T01:06:58;3.72;;;2.20;;
66893;SDS011;53801;55.786;49.142;2023-07-13T01:09:25;4.60;;;2.20;;
66893;SDS011;53801;55.786;49.142;2023-07-13T01:11:51;5.05;;;1.77;;
66893;SDS011;53801;55.786;49.142;2023-07-13T01:14:16;3.38;;;1.73;;
66893;SDS011;53801;55.786;49.142;2023-07-13T01:16:44;2.63;;;1.33;;
66893;SDS011;53801;55.786;49.142;2023-07-13T01:19:21;3.40;;;1.40;;
66893;SDS011;53801;55.786;49.142;2023-07-13T01:21:51;3.63;;;1.50;;
66893;SDS011;53801;55.786;49.142;2023-07-13T01:24:16;5.28;;;1.50;;
66893;SDS011;53801;55.786;49.142;2023-07-13T01:26:42;3.90;;;1.30;;
66893;SDS011;53801;55.786;49.142;2023-07-13T01:29:07;4.90;;;1.95;;
66893;SDS011;53801;55.786;49.142;2023-07-13T01:31:33;2.03;;;1.23;;
66893;SDS011;53801;55.786;49.142;2023-07-13T01:33:58;2.60;;;1.47;;
66893;SDS011;53801;55.786;49.142;2023-07-13T01:36:24;3.90;;;1.23;;
66893;SDS011;53801;55.786;49.142;2023-07-13T01:38:49;3.47;;;1.50;;
66893;SDS011;53801;55.786;49.142;2023-07-13T01:41:15;3.00;;;1.40;;
66893;SDS011;53801;55.786;49.142;2023-07-13T01:43:40;6.17;;;1.57;;
66893;SDS011;53801;55.786;49.142;2023-07-13T01:46:06;3.77;;;1.40;;
66893;SDS011;53801;55.786;49.142;2023-07-13T01:48:31;5.17;;;1.53;;
66893;SDS011;53801;55.786;49.142;2023-07-13T01:50:56;3.47;;;1.58;;
66893;SDS011;53801;55.786;49.142;2023-07-13T01:53:22;3.33;;;1.30;;
66893;SDS011;53801;55.786;49.142;2023-07-13T01:55:47;2.67;;;1.60;;
66893;SDS011;53801;55.786;49.142;2023-07-13T01:58:13;3.67;;;1.67;;
66893;SDS011;53801;55.786;49.142;2023-07-13T02:00:38;3.67;;;1.67;;
66893;SDS011;53801;55.786;49.142;2023-07-13T02:03:04;4.00;;;1.80;;
66893;SDS011;53801;55.786;49.142;2023-07-13T02:05:29;3.30;;;1.53;;
66893;SDS011;53801;55.786;49.142;2023-07-13T02:07:55;4.10;;;1.80;;
66893;SDS011;53801;55.786;49.142;2023-07-13T02:10:20;4.20;;;2.17;;
66893;SDS011;53801;55.786;49.142;2023-07-13T02:12:50;3.28;;;1.85;;
66893;SDS011;53801;55.786;49.142;2023-07-13T02:15:16;3.88;;;1.70;;
66893;SDS011;53801;55.786;49.142;2023-07-13T02:17:41;5.33;;;1.80;;
66893;SDS011;53801;55.786;49.142;2023-07-13T02:20:07;3.35;;;1.52;;
66893;SDS011;53801;55.786;49.142;2023-07-13T02:22:34;2.90;;;1.60;;
66893;SDS011;53801;55.786;49.142;2023-07-13T02:25:00;4.55;;;1.70;;
66893;SDS011;53801;55.786;49.142;2023-07-13T02:27:26;3.67;;;2.00;;
66893;SDS011;53801;55.786;49.142;2023-07-13T02:29:51;3.83;;;2.00;;
66893;SDS011;53801;55.786;49.142;2023-07-13T02:32:17;4.27;;;1.90;;
66893;SDS011;53801;55.786;49.142;2023-07-13T02:34:43;4.85;;;1.80;;
66893;SDS011;53801;55.786;49.142;2023-07-13T02:37:08;2.30;;;1.50;;
66893;SDS011;53801;55.786;49.142;2023-07-13T02:39:34;3.27;;;1.70;;
66893;SDS011;53801;55.786;49.142;2023-07-13T02:41:59;3.00;;;1.70;;
66893;SDS011;53801;55.786;49.142;2023-07-13T02:44:26;3.40;;;1.83;;
66893;SDS011;53801;55.786;49.142;2023-07-13T02:46:51;2.97;;;1.67;;
66893;SDS011;53801;55.786;49.142;2023-07-13T02:49:17;2.40;;;1.60;;
66893;SDS011;53801;55.786;49.142;2023-07-13T02:54:32;3.47;;;1.70;;
66893;SDS011;53801;55.786;49.142;2023-07-13T02:56:57;3.80;;;1.70;;
66893;SDS011;53801;55.786;49.142;2023-07-13T03:01:57;2.80;;;1.77;;
66893;SDS011;53801;55.786;49.142;2023-07-13T03:04:22;4.30;;;1.80;;
66893;SDS011;53801;55.786;49.142;2023-07-13T03:06:47;3.60;;;1.93;;
66893;SDS011;53801;55.786;49.142;2023-07-13T03:09:13;3.63;;;1.73;;
66893;SDS011;53801;55.786;49.142;2023-07-13T03:11:38;6.43;;;1.88;;
66893;SDS011;53801;55.786;49.142;2023-07-13T03:14:04;6.23;;;2.00;;
66893;SDS011;53801;55.786;49.142;2023-07-13T03:16:30;4.13;;;1.53;;
66893;SDS011;53801;55.786;49.142;2023-07-13T03:18:55;3.33;;;2.13;;
66893;SDS011;53801;55.786;49.142;2023-07-13T03:21:20;2.22;;;1.67;;
66893;SDS011;53801;55.786;49.142;2023-07-13T03:23:46;5.37;;;1.90;;
66893;SDS011;53801;55.786;49.142;2023-07-13T03:26:13;4.37;;;1.93;;
66893;SDS011;53801;55.786;49.142;2023-07-13T03:28:39;2.88;;;1.92;;
66893;SDS011;53801;55.786;49.142;2023-07-13T03:31:12;3.63;;;1.95;;
66893;SDS011;53801;55.786;49.142;2023-07-13T03:33:38;2.45;;;1.70;;
66893;SDS011;53801;55.786;49.142;2023-07-13T03:36:04;4.65;;;2.10;;
66893;SDS011;53801;55.786;49.142;2023-07-13T03:38:30;5.18;;;2.00;;
66893;SDS011;53801;55.786;49.142;2023-07-13T03:40:55;2.33;;;1.48;;
66893;SDS011;53801;55.786;49.142;2023-07-13T03:43:20;3.53;;;1.97;;
66893;SDS011;53801;55.786;49.142;2023-07-13T03:45:46;3.63;;;1.90;;
66893;SDS011;53801;55.786;49.142;2023-07-13T03:48:12;4.97;;;2.38;;
66893;SDS011;53801;55.786;49.142;2023-07-13T03:50:39;3.60;;;2.20;;
66893;SDS011;53801;55.786;49.142;2023-07-13T03:53:05;7.30;;;2.20;;
66893;SDS011;53801;55.786;49.142;2023-07-13T03:55:30;3.50;;;1.90;;
66893;SDS011;53801;55.786;49.142;2023-07-13T03:58:06;3.42;;;2.20;;
66893;SDS011;53801;55.786;49.142;2023-07-13T04:00:44;4.03;;;1.90;;
66893;SDS011;53801;55.786;49.142;2023-07-13T04:03:10;3.65;;;2.10;;
66893;SDS011;53801;55.786;49.142;2023-07-13T04:05:35;3.37;;;2.07;;
66893;SDS011;53801;55.786;49.142;2023-07-13T04:08:01;4.47;;;2.15;;
66893;SDS011;53801;55.786;49.142;2023-07-13T04:10:26;3.80;;;2.10;;
66893;SDS011;53801;55.786;49.142;2023-07-13T04:12:52;3.77;;;2.70;;
66893;SDS011;53801;55.786;49.142;2023-07-13T04:15:17;5.17;;;2.50;;
66893;SDS011;53801;55.786;49.142;2023-07-13T04:17:43;4.35;;;2.42;;
66893;SDS011;53801;55.786;49.142;2023-07-13T04:20:08;5.15;;;2.20;;
66893;SDS011;53801;55.786;49.142;2023-07-13T04:22:34;3.60;;;2.30;;
66893;SDS011;53801;55.786;49.142;2023-07-13T04:24:59;4.20;;;2.33;;
66893;SDS011;53801;55.786;49.142;2023-07-13T04:27:24;4.40;;;2.50;;
66893;SDS011;53801;55.786;49.142;2023-07-13T04:29:50;5.95;;;2.30;;
66893;SDS011;53801;55.786;49.142;2023-07-13T04:32:16;3.75;;;2.33;;
66893;SDS011;53801;55.786;49.142;2023-07-13T04:34:42;4.93;;;3.10;;
66893;SDS011;53801;55.786;49.142;2023-07-13T04:37:07;4.60;;;2.43;;
66893;SDS011;53801;55.786;49.142;2023-07-13T04:39:33;4.32;;;2.90;;
66893;SDS011;53801;55.786;49.142;2023-07-13T04:41:58;5.73;;;3.00;;
66893;SDS011;53801;55.786;49.142;2023-07-13T04:44:23;5.87;;;2.93;;
66893;SDS011;53801;55.786;49.142;2023-07-13T04:46:49;3.80;;;2.60;;
66893;SDS011;53801;55.786;49.142;2023-07-13T04:49:14;5.10;;;3.05;;
66893;SDS011;53801;55.786;49.142;2023-07-13T04:51:40;7.90;;;3.60;;
66893;SDS011;53801;55.786;49.142;2023-07-13T04:54:09;5.20;;;3.47;;
66893;SDS011;53801;55.786;49.142;2023-07-13T04:56:34;7.00;;;3.40;;
66893;SDS011;53801;55.786;49.142;2023-07-13T04:59:00;5.53;;;3.70;;
66893;SDS011;53801;55.786;49.142;2023-07-13T05:01:25;6.07;;;3.80;;
66893;SDS011;53801;55.786;49.142;2023-07-13T05:03:51;3.97;;;3.67;;
66893;SDS011;53801;55.786;49.142;2023-07-13T05:06:17;6.93;;;4.03;;
66893;SDS011;53801;55.786;49.142;2023-07-13T05:08:45;9.57;;;5.03;;
66893;SDS011;53801;55.786;49.142;2023-07-13T05:11:11;5.97;;;4.25;;
66893;SDS011;53801;55.786;49.142;2023-07-13T05:13:36;6.67;;;4.10;;
66893;SDS011;53801;55.786;49.142;2023-07-13T05:16:02;5.53;;;4.45;;
66893;SDS011;53801;55.786;49.142;2023-07-13T05:18:28;4.97;;;4.47;;
66893;SDS011;53801;55.786;49.142;2023-07-13T05:21:02;6.20;;;5.60;;
66893;SDS011;53801;55.786;49.142;2023-07-13T05:23:28;6.85;;;4.78;;
66893;SDS011;53801;55.786;49.142;2023-07-13T05:25:53;5.93;;;5.30;;
66893;SDS011;53801;55.786;49.142;2023-07-13T05:28:19;5.82;;;5.22;;
66893;SDS011;53801;55.786;49.142;2023-07-13T05:30:48;6.70;;;6.00;;
66893;SDS011;53801;55.786;49.142;2023-07-13T05:33:13;6.25;;;4.95;;
66893;SDS011;53801;55.786;49.142;2023-07-13T05:35:39;5.37;;;4.60;;
66893;SDS011;53801;55.786;49.142;2023-07-13T05:38:04;6.17;;;3.80;;
66893;SDS011;53801;55.786;49.142;2023-07-13T05:40:30;4.43;;;3.85;;
66893;SDS011;53801;55.786;49.142;2023-07-13T05:42:55;9.02;;;3.42;;
66893;SDS011;53801;55.786;49.142;2023-07-13T05:45:21;3.53;;;3.13;;
66893;SDS011;53801;55.786;49.142;2023-07-13T05:47:46;6.50;;;3.53;;
66893;SDS011;53801;55.786;49.142;2023-07-13T05:50:11;4.55;;;3.95;;
66893;SDS011;53801;55.786;49.142;2023-07-13T05:52:37;4.32;;;3.85;;
66893;SDS011;53801;55.786;49.142;2023-07-13T05:55:03;4.77;;;4.30;;
66893;SDS011;53801;55.786;49.142;2023-07-13T05:57:29;4.75;;;4.35;;
66893;SDS011;53801;55.786;49.142;2023-07-13T05:59:55;6.00;;;5.00;;
66893;SDS011;53801;55.786;49.142;2023-07-13T06:05:12;5.93;;;4.93;;
66893;SDS011;53801;55.786;49.142;2023-07-13T06:07:37;5.90;;;4.83;;
66893;SDS011;53801;55.786;49.142;2023-07-13T06:10:03;3.80;;;3.50;;
66893;SDS011;53801;55.786;49.142;2023-07-13T06:12:29;5.60;;;5.10;;
66893;SDS011;53801;55.786;49.142;2023-07-13T06:14:54;5.05;;;4.43;;
66893;SDS011;53801;55.786;49.142;2023-07-13T06:17:20;4.63;;;4.05;;
66893;SDS011;53801;55.786;49.142;2023-07-13T06:19:45;4.70;;;3.73;;
66893;SDS011;53801;55.786;49.142;2023-07-13T06:22:11;5.87;;;5.33;;
66893;SDS011;53801;55.786;49.142;2023-07-13T06:24:36;5.37;;;4.87;;
66893;SDS011;53801;55.786;49.142;2023-07-13T06:27:03;6.43;;;4.90;;
66893;SDS011;53801;55.786;49.142;2023-07-13T06:29:28;5.60;;;5.10;;
66893;SDS011;53801;55.786;49.142;2023-07-13T06:31:54;5.55;;;5.05;;
66893;SDS011;53801;55.786;49.142;2023-07-13T06:34:19;5.47;;;4.97;;
66893;SDS011;53801;55.786;49.142;2023-07-13T06:36:45;5.80;;;5.30;;
66893;SDS011;53801;55.786;49.142;2023-07-13T06:39:10;5.82;;;5.32;;
66893;SDS011;53801;55.786;49.142;2023-07-13T06:41:36;6.33;;;5.10;;
66893;SDS011;53801;55.786;49.142;2023-07-13T06:44:03;5.55;;;5.05;;
66893;SDS011;53801;55.786;49.142;2023-07-13T06:46:29;6.23;;;5.20;;
66893;SDS011;53801;55.786;49.142;2023-07-13T06:48:55;6.85;;;5.68;;
66893;SDS011;53801;55.786;49.142;2023-07-13T06:51:21;6.18;;;5.68;;
66893;SDS011;53801;55.786;49.142;2023-07-13T06:53:46;6.40;;;5.80;;
66893;SDS011;53801;55.786;49.142;2023-07-13T06:56:12;6.72;;;6.03;;
66893;SDS011;53801;55.786;49.142;2023-07-13T07:01:19;5.90;;;5.40;;
66893;SDS011;53801;55.786;49.142;2023-07-13T07:03:44;7.15;;;3.40;;
66893;SDS011;53801;55.786;49.142;2023-07-13T07:08:39;5.28;;;4.88;;
66893;SDS011;53801;55.786;49.142;2023-07-13T07:11:05;6.20;;;5.60;;
66893;SDS011;53801;55.786;49.142;2023-07-13T07:13:32;3.83;;;3.53;;
66893;SDS011;53801;55.786;49.142;2023-07-13T07:15:58;5.03;;;4.63;;
66893;SDS011;53801;55.786;49.142;2023-07-13T07:18:25;5.22;;;3.00;;
66893;SDS011;53801;55.786;49.142;2023-07-13T07:20:50;7.33;;;4.83;;
66893;SDS011;53801;55.786;49.142;2023-07-13T07:23:16;6.50;;;5.20;;
66893;SDS011;53801;55.786;49.142;2023-07-13T07:25:47;5.20;;;4.80;;
66893;SDS011;53801;55.786;49.142;2023-07-13T07:28:39;6.67;;;4.70;;
66893;SDS011;53801;55.786;49.142;2023-07-13T07:31:05;4.57;;;4.18;;
66893;SDS011;53801;55.786;49.142;2023-07-13T07:33:31;4.73;;;3.70;;
66893;SDS011;53801;55.786;49.142;2023-07-13T07:35:57;4.70;;;4.30;;
66893;SDS011;53801;55.786;49.142;2023-07-13T07:38:25;5.75;;;3.85;;
66893;SDS011;53801;55.786;49.142;2023-07-13T07:40:51;3.80;;;3.20;;
66893;SDS011;53801;55.786;49.142;2023-07-13T07:43:16;4.00;;;3.10;;
66893;SDS011;53801;55.786;49.142;2023-07-13T07:45:43;3.50;;;3.00;;
66893;SDS011;53801;55.786;49.142;2023-07-13T07:48:09;4.07;;;3.10;;
66893;SDS011;53801;55.786;49.142;2023-07-13T07:50:35;6.23;;;3.00;;
66893;SDS011;53801;55.786;49.142;2023-07-13T07:53:02;6.72;;;3.10;;
66893;SDS011;53801;55.786;49.142;2023-07-13T07:55:28;8.20;;;2.57;;
66893;SDS011;53801;55.786;49.142;2023-07-13T07:57:56;2.88;;;2.42;;
66893;SDS011;53801;55.786;49.142;2023-07-13T08:02:50;5.35;;;3.17;;
66893;SDS011;53801;55.786;49.142;2023-07-13T08:05:16;3.47;;;2.78;;
66893;SDS011;53801;55.786;49.142;2023-07-13T08:07:42;6.73;;;3.37;;
66893;SDS011;53801;55.786;49.142;2023-07-13T08:10:07;5.18;;;3.38;;
66893;SDS011;53801;55.786;49.142;2023-07-13T08:12:34;3.72;;;3.10;;
66893;SDS011;53801;55.786;49.142;2023-07-13T08:14:59;5.85;;;2.75;;
66893;SDS011;53801;55.786;49.142;2023-07-13T08:17:26;5.25;;;2.50;;
66893;SDS011;53801;55.786;49.142;2023-07-13T08:19:52;4.37;;;2.47;;
66893;SDS011;53801;55.786;49.142;2023-07-13T08:22:17;3.95;;;2.70;;
66893;SDS011;53801;55.786;49.142;2023-07-13T08:27:33;7.13;;;2.80;;
66893;SDS011;53801;55.786;49.142;2023-07-13T08:29:58;3.80;;;2.70;;
66893;SDS011;53801;55.786;49.142;2023-07-13T08:34:59;3.90;;;2.90;;
66893;SDS011;53801;55.786;49.142;2023-07-13T08:37:24;2.73;;;2.37;;
66893;SDS011;53801;55.786;49.142;2023-07-13T08:39:50;3.57;;;3.23;;
66893;SDS011;53801;55.786;49.142;2023-07-13T08:47:40;6.38;;;2.75;;
66893;SDS011;53801;55.786;49.142;2023-07-13T08:50:11;7.50;;;3.38;;
66893;SDS011;53801;55.786;49.142;2023-07-13T08:52:38;4.57;;;3.17;;
66893;SDS011;53801;55.786;49.142;2023-07-13T08:55:05;5.75;;;3.67;;
66893;SDS011;53801;55.786;49.142;2023-07-13T09:00:15;6.20;;;3.95;;
66893;SDS011;53801;55.786;49.142;2023-07-13T09:02:42;6.00;;;4.15;;
66893;SDS011;53801;55.786;49.142;2023-07-13T09:05:13;4.10;;;3.35;;
66893;SDS011;53801;55.786;49.142;2023-07-13T09:12:54;4.30;;;2.80;;
66893;SDS011;53801;55.786;49.142;2023-07-13T09:15:29;3.30;;;3.00;;
66893;SDS011;53801;55.786;49.142;2023-07-13T09:18:03;4.20;;;3.10;;
66893;SDS011;53801;55.786;49.142;2023-07-13T09:22:59;4.57;;;4.15;;
66893;SDS011;53801;55.786;49.142;2023-07-13T09:27:52;4.17;;;3.77;;
66893;SDS011;53801;55.786;49.142;2023-07-13T09:30:23;6.63;;;4.68;;
66893;SDS011;53801;55.786;49.142;2023-07-13T09:32:51;4.20;;;3.80;;
66893;SDS011;53801;55.786;49.142;2023-07-13T09:35:19;5.03;;;4.53;;
66893;SDS011;53801;55.786;49.142;2023-07-13T09:37:46;5.22;;;4.60;;
66893;SDS011;53801;55.786;49.142;2023-07-13T09:40:14;7.68;;;5.20;;
66893;SDS011;53801;55.786;49.142;2023-07-13T09:42:42;4.97;;;4.57;;
66893;SDS011;53801;55.786;49.142;2023-07-13T09:45:07;7.23;;;4.97;;
66893;SDS011;53801;55.786;49.142;2023-07-13T09:47:39;5.15;;;4.65;;
66893;SDS011;53801;55.786;49.142;2023-07-13T09:50:23;5.32;;;4.82;;
66893;SDS011;53801;55.786;49.142;2023-07-13T09:52:49;4.50;;;3.05;;
66893;SDS011;53801;55.786;49.142;2023-07-13T09:55:32;4.00;;;2.75;;
66893;SDS011;53801;55.786;49.142;2023-07-13T09:58:04;3.40;;;3.10;;
66893;SDS011;53801;55.786;49.142;2023-07-13T10:00:30;3.97;;;3.30;;
66893;SDS011;53801;55.786;49.142;2023-07-13T10:03:09;5.25;;;3.10;;
66893;SDS011;53801;55.786;49.142;2023-07-13T10:05:39;3.70;;;3.30;;
66893;SDS011;53801;55.786;49.142;2023-07-13T10:10:43;5.00;;;4.07;;
66893;SDS011;53801;55.786;49.142;2023-07-13T10:13:21;3.83;;;3.38;;
66893;SDS011;53801;55.786;49.142;2023-07-13T10:15:49;3.85;;;3.05;;
66893;SDS011;53801;55.786;49.142;2023-07-13T10:18:15;4.00;;;3.70;;
66893;SDS011;53801;55.786;49.142;2023-07-13T10:20:40;6.07;;;4.38;;
66893;SDS011;53801;55.786;49.142;2023-07-13T10:23:10;4.40;;;4.00;;
66893;SDS011;53801;55.786;49.142;2023-07-13T10:25:39;4.45;;;3.90;;
66893;SDS011;53801;55.786;49.142;2023-07-13T10:28:20;3.90;;;3.60;;
66893;SDS011;53801;55.786;49.142;2023-07-13T10:30:48;6.57;;;2.78;;
66893;SDS011;53801;55.786;49.142;2023-07-13T10:33:15;3.78;;;2.90;;
66893;SDS011;53801;55.786;49.142;2023-07-13T10:35:42;3.72;;;3.10;;
66893;SDS011;53801;55.786;49.142;2023-07-13T10:38:12;4.32;;;2.80;;
66893;SDS011;53801;55.786;49.142;2023-07-13T10:40:43;2.75;;;2.55;;
66893;SDS011;53801;55.786;49.142;2023-07-13T10:43:14;3.88;;;2.67;;
66893;SDS011;53801;55.786;49.142;2023-07-13T10:45:42;5.45;;;3.00;;
66893;SDS011;53801;55.786;49.142;2023-07-13T10:48:11;4.28;;;2.80;;
66893;SDS011;53801;55.786;49.142;2023-07-13T10:50:40;3.15;;;2.80;;
66893;SDS011;53801;55.786;49.142;2023-07-13T11:00:56;5.38;;;2.30;;
66893;SDS011;53801;55.786;49.142;2023-07-13T11:03:22;3.25;;;2.33;;
66893;SDS011;53801;55.786;49.142;2023-07-13T11:05:49;3.65;;;2.47;;
66893;SDS011;53801;55.786;49.142;2023-07-13T11:08:18;3.95;;;2.25;;
66893;SDS011;53801;55.786;49.142;2023-07-13T11:18:47;4.53;;;1.90;;
66893;SDS011;53801;55.786;49.142;2023-07-13T11:21:23;3.35;;;1.63;;
66893;SDS011;53801;55.786;49.142;2023-07-13T11:23:52;2.10;;;1.60;;
66893;SDS011;53801;55.786;49.142;2023-07-13T11:29:07;2.15;;;1.63;;
66893;SDS011;53801;55.786;49.142;2023-07-13T11:31:33;3.05;;;1.60;;
66893;SDS011;53801;55.786;49.142;2023-07-13T11:33:59;4.45;;;1.40;;
66893;SDS011;53801;55.786;49.142;2023-07-13T11:36:29;3.95;;;1.58;;
66893;SDS011;53801;55.786;49.142;2023-07-13T11:41:29;3.67;;;1.45;;
66893;SDS011;53801;55.786;49.142;2023-07-13T11:44:06;2.15;;;1.30;;
66893;SDS011;53801;55.786;49.142;2023-07-13T11:46:32;3.17;;;1.30;;
66893;SDS011;53801;55.786;49.142;2023-07-13T11:48:57;3.90;;;1.50;;
66893;SDS011;53801;55.786;49.142;2023-07-13T11:51:29;1.57;;;1.30;;
66893;SDS011;53801;55.786;49.142;2023-07-13T11:54:03;2.78;;;1.45;;
66893;SDS011;53801;55.786;49.142;2023-07-13T11:56:29;3.55;;;1.80;;
66893;SDS011;53801;55.786;49.142;2023-07-13T11:58:57;5.93;;;1.90;;
66893;SDS011;53801;55.786;49.142;2023-07-13T12:01:24;5.57;;;2.00;;
66893;SDS011;53801;55.786;49.142;2023-07-13T12:03:50;2.33;;;1.77;;
66893;SDS011;53801;55.786;49.142;2023-07-13T12:06:27;2.78;;;1.58;;
66893;SDS011;53801;55.786;49.142;2023-07-13T12:08:55;2.75;;;1.58;;
66893;SDS011;53801;55.786;49.142;2023-07-13T12:11:21;2.30;;;1.55;;
66893;SDS011;53801;55.786;49.142;2023-07-13T12:13:47;1.60;;;1.20;;
66893;SDS011;53801;55.786;49.142;2023-07-13T12:18:53;2.17;;;1.67;;
66893;SDS011;53801;55.786;49.142;2023-07-13T12:21:19;3.90;;;1.50;;
66893;SDS011;53801;55.786;49.142;2023-07-13T12:23:47;1.70;;;1.13;;
66893;SDS011;53801;55.786;49.142;2023-07-13T12:26:14;3.75;;;1.33;;
66893;SDS011;53801;55.786;49.142;2023-07-13T12:28:45;3.47;;;1.75;;
66893;SDS011;53801;55.786;49.142;2023-07-13T12:31:22;3.50;;;1.60;;
66893;SDS011;53801;55.786;49.142;2023-07-13T12:33:49;2.90;;;1.52;;
66893;SDS011;53801;55.786;49.142;2023-07-13T12:36:21;4.07;;;1.65;;
66893;SDS011;53801;55.786;49.142;2023-07-13T12:38:46;3.55;;;1.42;;
66893;SDS011;53801;55.786;49.142;2023-07-13T12:41:12;3.83;;;1.73;;
66893;SDS011;53801;55.786;49.142;2023-07-13T12:43:38;2.50;;;1.60;;
66893;SDS011;53801;55.786;49.142;2023-07-13T12:46:04;2.75;;;1.45;;
66893;SDS011;53801;55.786;49.142;2023-07-13T12:48:41;5.55;;;2.40;;
66893;SDS011;53801;55.786;49.142;2023-07-13T12:51:08;3.33;;;1.90;;
66893;SDS011;53801;55.786;49.142;2023-07-13T12:53:41;6.07;;;2.60;;
66893;SDS011;53801;55.786;49.142;2023-07-13T12:56:08;4.82;;;1.77;;
66893;SDS011;53801;55.786;49.142;2023-07-13T12:58:40;4.30;;;2.03;;
66893;SDS011;53801;55.786;49.142;2023-07-13T13:01:09;7.22;;;2.10;;
66893;SDS011;53801;55.786;49.142;2023-07-13T13:06:37;3.67;;;1.70;;
66893;SDS011;53801;55.786;49.142;2023-07-13T13:09:03;4.63;;;1.70;;
66893;SDS011;53801;55.786;49.142;2023-07-13T13:11:30;3.83;;;1.95;;
66893;SDS011;53801;55.786;49.142;2023-07-13T13:13:56;3.92;;;1.50;;
66893;SDS011;53801;55.786;49.142;2023-07-13T13:19:10;4.87;;;1.63;;
66893;SDS011;53801;55.786;49.142;2023-07-13T13:21:37;5.82;;;1.60;;
66893;SDS011;53801;55.786;49.142;2023-07-13T13:26:51;3.40;;;1.60;;
66893;SDS011;53801;55.786;49.142;2023-07-13T13:29:21;5.85;;;1.67;;
66893;SDS011;53801;55.786;49.142;2023-07-13T13:31:49;3.42;;;1.80;;
66893;SDS011;53801;55.786;49.142;2023-07-13T13:34:15;4.17;;;1.40;;
66893;SDS011;53801;55.786;49.142;2023-07-13T13:36:41;1.95;;;1.45;;
66893;SDS011;53801;55.786;49.142;2023-07-13T13:39:21;6.72;;;3.42;;
66893;SDS011;53801;55.786;49.142;2023-07-13T13:41:49;4.88;;;1.73;;
66893;SDS011;53801;55.786;49.142;2023-07-13T13:44:15;6.15;;;1.63;;
66893;SDS011;53801;55.786;49.142;2023-07-13T13:46:41;2.42;;;1.42;;
66893;SDS011;53801;55.786;49.142;2023-07-13T13:49:12;5.43;;;1.58;;
66893;SDS011;53801;55.786;49.142;2023-07-13T13:51:38;3.95;;;1.60;;
66893;SDS011;53801;55.786;49.142;2023-07-13T13:54:05;5.10;;;1.90;;
66893;SDS011;53801;55.786;49.142;2023-07-13T13:56:30;1.92;;;1.20;;
66893;SDS011;53801;55.786;49.142;2023-07-13T13:58:55;2.50;;;1.47;;
66893;SDS011;53801;55.786;49.142;2023-07-13T14:01:22;3.07;;;1.67;;
66893;SDS011;53801;55.786;49.142;2023-07-13T14:03:48;3.40;;;1.83;;
66893;SDS011;53801;55.786;49.142;2023-07-13T14:06:16;2.90;;;1.60;;
66893;SDS011;53801;55.786;49.142;2023-07-13T14:08:42;5.10;;;1.70;;
66893;SDS011;53801;55.786;49.142;2023-07-13T14:11:15;3.25;;;1.80;;
66893;SDS011;53801;55.786;49.142;2023-07-13T14:13:48;3.95;;;1.50;;
66893;SDS011;53801;55.786;49.142;2023-07-13T14:16:18;4.70;;;1.70;;
66893;SDS011;53801;55.786;49.142;2023-07-13T14:18:44;3.00;;;1.58;;
66893;SDS011;53801;55.786;49.142;2023-07-13T14:21:11;3.80;;;1.80;;
66893;SDS011;53801;55.786;49.142;2023-07-13T14:23:37;4.03;;;1.77;;
66893;SDS011;53801;55.786;49.142;2023-07-13T14:26:04;2.10;;;1.30;;
66893;SDS011;53801;55.786;49.142;2023-07-13T14:28:29;5.55;;;1.70;;
66893;SDS011;53801;55.786;49.142;2023-07-13T14:30:55;3.28;;;1.40;;
66893;SDS011;53801;55.786;49.142;2023-07-13T14:33:20;3.22;;;1.73;;
66893;SDS011;53801;55.786;49.142;2023-07-13T14:35:46;3.77;;;1.50;;
66893;SDS011;53801;55.786;49.142;2023-07-13T14:38:16;2.70;;;1.73;;
66893;SDS011;53801;55.786;49.142;2023-07-13T14:40:43;2.35;;;1.50;;
66893;SDS011;53801;55.786;49.142;2023-07-13T14:43:12;2.87;;;1.40;;
66893;SDS011;53801;55.786;49.142;2023-07-13T14:45:43;2.83;;;1.30;;
66893;SDS011;53801;55.786;49.142;2023-07-13T14:50:44;4.53;;;2.90;;
66893;SDS011;53801;55.786;49.142;2023-07-13T14:53:11;4.78;;;2.28;;
66893;SDS011;53801;55.786;49.142;2023-07-13T14:55:37;3.47;;;1.80;;
66893;SDS011;53801;55.786;49.142;2023-07-13T14:58:06;7.18;;;1.98;;
66893;SDS011;53801;55.786;49.142;2023-07-13T15:00:32;2.63;;;1.50;;
66893;SDS011;53801;55.786;49.142;2023-07-13T15:02:58;2.25;;;1.35;;
66893;SDS011;53801;55.786;49.142;2023-07-13T15:05:26;2.25;;;1.25;;
66893;SDS011;53801;55.786;49.142;2023-07-13T15:07:52;3.10;;;1.60;;
66893;SDS011;53801;55.786;49.142;2023-07-13T15:10:22;3.58;;;1.33;;
66893;SDS011;53801;55.786;49.142;2023-07-13T15:12:48;7.32;;;1.58;;
66893;SDS011;53801;55.786;49.142;2023-07-13T15:15:13;4.30;;;1.50;;
66893;SDS011;53801;55.786;49.142;2023-07-13T15:17:40;4.50;;;1.20;;
66893;SDS011;53801;55.786;49.142;2023-07-13T15:20:11;3.20;;;1.55;;
66893;SDS011;53801;55.786;49.142;2023-07-13T15:22:41;3.17;;;1.60;;
66893;SDS011;53801;55.786;49.142;2023-07-13T15:25:20;3.63;;;1.90;;
66893;SDS011;53801;55.786;49.142;2023-07-13T15:27:46;6.45;;;1.88;;
66893;SDS011;53801;55.786;49.142;2023-07-13T15:30:13;4.28;;;1.35;;
66893;SDS011;53801;55.786;49.142;2023-07-13T15:32:44;5.07;;;1.40;;
66893;SDS011;53801;55.786;49.142;2023-07-13T15:35:13;4.10;;;1.30;;
66893;SDS011;53801;55.786;49.142;2023-07-13T15:37:42;4.45;;;1.42;;
66893;SDS011;53801;55.786;49.142;2023-07-13T15:40:08;5.68;;;1.65;;
66893;SDS011;53801;55.786;49.142;2023-07-13T15:42:34;9.18;;;1.70;;
66893;SDS011;53801;55.786;49.142;2023-07-13T15:47:42;1.77;;;0.97;;
66893;SDS011;53801;55.786;49.142;2023-07-13T15:52:51;4.72;;;1.30;;
66893;SDS011;53801;55.786;49.142;2023-07-13T15:55:17;3.47;;;1.30;;